sensor_id;sensor_type;location;lat;lon;timestamp;P1;durP1;ratioP1;P2;durP2;ratioP2
4313;SDS011;2170;48.794;9.182;2023-09-19T00:00:25;1.90;;;1.40;;
4313;SDS011;2170;48.794;9.182;2023-09-19T00:02:52;1.83;;;1.10;;
4313;SDS011;2170;48.794;9.182;2023-09-19T00:05:19;2.00;;;1.30;;
4313;SDS011;2170;48.794;9.182;2023-09-19T00:07:49;1.20;;;1.17;;
4313;SDS011;2170;48.794;9.182;2023-09-19T00:10:18;1.80;;;1.40;;
4313;SDS011;2170;48.794;9.182;2023-09-19T00:12:46;1.30;;;1.20;;
4313;SDS011;2170;48.794;9.182;2023-09-19T00:15:15;1.23;;;1.07;;
4313;SDS011;2170;48.794;9.182;2023-09-19T00:17:42;1.50;;;1.17;;
4313;SDS011;2170;48.794;9.182;2023-09-19T00:20:09;1.20;;;1.10;;
4313;SDS011;2170;48.794;9.182;2023-09-19T00:22:38;1.57;;;1.03;;
4313;SDS011;2170;48.794;9.182;2023-09-19T00:25:06;1.03;;;0.90;;
4313;SDS011;2170;48.794;9.182;2023-09-19T00:27:33;2.10;;;1.23;;
4313;SDS011;2170;48.794;9.182;2023-09-19T00:30:00;1.87;;;1.10;;
4313;SDS011;2170;48.794;9.182;2023-09-19T00:32:30;1.00;;;1.00;;
4313;SDS011;2170;48.794;9.182;2023-09-19T00:34:57;1.60;;;1.50;;
4313;SDS011;2170;48.794;9.182;2023-09-19T00:37:24;1.47;;;1.37;;
4313;SDS011;2170;48.794;9.182;2023-09-19T00:39:51;3.43;;;1.83;;
4313;SDS011;2170;48.794;9.182;2023-09-19T00:42:18;1.57;;;1.30;;
4313;SDS011;2170;48.794;9.182;2023-09-19T00:44:46;1.83;;;1.20;;
4313;SDS011;2170;48.794;9.182;2023-09-19T00:47:16;2.03;;;1.30;;
4313;SDS011;2170;48.794;9.182;2023-09-19T00:49:44;1.10;;;1.00;;
4313;SDS011;2170;48.794;9.182;2023-09-19T00:52:14;1.40;;;1.30;;
4313;SDS011;2170;48.794;9.182;2023-09-19T00:54:44;1.43;;;1.10;;
4313;SDS011;2170;48.794;9.182;2023-09-19T00:57:12;1.63;;;1.13;;
4313;SDS011;2170;48.794;9.182;2023-09-19T00:59:41;1.07;;;1.00;;
4313;SDS011;2170;48.794;9.182;2023-09-19T01:02:08;1.53;;;1.10;;
4313;SDS011;2170;48.794;9.182;2023-09-19T01:04:35;2.60;;;1.20;;
4313;SDS011;2170;48.794;9.182;2023-09-19T01:07:04;1.10;;;1.10;;
4313;SDS011;2170;48.794;9.182;2023-09-19T01:09:31;1.17;;;1.13;;
4313;SDS011;2170;48.794;9.182;2023-09-19T01:12:01;2.50;;;1.30;;
4313;SDS011;2170;48.794;9.182;2023-09-19T01:14:33;1.00;;;1.00;;
4313;SDS011;2170;48.794;9.182;2023-09-19T01:17:09;1.37;;;1.27;;
4313;SDS011;2170;48.794;9.182;2023-09-19T01:22:45;2.60;;;1.30;;
4313;SDS011;2170;48.794;9.182;2023-09-19T01:25:20;1.17;;;1.07;;
4313;SDS011;2170;48.794;9.182;2023-09-19T01:28:14;1.00;;;1.00;;
4313;SDS011;2170;48.794;9.182;2023-09-19T01:30:57;1.40;;;1.30;;
4313;SDS011;2170;48.794;9.182;2023-09-19T01:33:25;2.63;;;1.27;;
4313;SDS011;2170;48.794;9.182;2023-09-19T01:35:51;2.57;;;1.17;;
4313;SDS011;2170;48.794;9.182;2023-09-19T01:38:23;1.57;;;1.07;;
4313;SDS011;2170;48.794;9.182;2023-09-19T01:40:53;1.33;;;1.23;;
4313;SDS011;2170;48.794;9.182;2023-09-19T01:43:30;1.20;;;1.10;;
4313;SDS011;2170;48.794;9.182;2023-09-19T01:46:05;0.90;;;0.90;;
4313;SDS011;2170;48.794;9.182;2023-09-19T01:48:40;1.90;;;1.20;;
4313;SDS011;2170;48.794;9.182;2023-09-19T01:51:13;1.90;;;1.13;;
4313;SDS011;2170;48.794;9.182;2023-09-19T01:53:49;1.10;;;1.00;;
4313;SDS011;2170;48.794;9.182;2023-09-19T01:56:22;0.80;;;0.80;;
4313;SDS011;2170;48.794;9.182;2023-09-19T01:58:55;0.80;;;0.80;;
4313;SDS011;2170;48.794;9.182;2023-09-19T02:01:25;1.23;;;1.10;;
4313;SDS011;2170;48.794;9.182;2023-09-19T02:03:54;1.87;;;1.13;;
4313;SDS011;2170;48.794;9.182;2023-09-19T02:06:21;1.00;;;1.00;;
4313;SDS011;2170;48.794;9.182;2023-09-19T02:08:50;1.90;;;1.33;;
4313;SDS011;2170;48.794;9.182;2023-09-19T02:11:17;0.83;;;0.83;;
4313;SDS011;2170;48.794;9.182;2023-09-19T02:13:43;1.53;;;1.10;;
4313;SDS011;2170;48.794;9.182;2023-09-19T02:16:10;1.07;;;0.70;;
4313;SDS011;2170;48.794;9.182;2023-09-19T02:18:38;0.97;;;0.97;;
4313;SDS011;2170;48.794;9.182;2023-09-19T02:21:05;1.50;;;1.40;;
4313;SDS011;2170;48.794;9.182;2023-09-19T02:23:34;1.43;;;0.90;;
4313;SDS011;2170;48.794;9.182;2023-09-19T02:26:01;3.23;;;0.80;;
4313;SDS011;2170;48.794;9.182;2023-09-19T02:28:28;1.43;;;1.27;;
4313;SDS011;2170;48.794;9.182;2023-09-19T02:30:57;0.90;;;0.90;;
4313;SDS011;2170;48.794;9.182;2023-09-19T02:33:24;0.80;;;0.80;;
4313;SDS011;2170;48.794;9.182;2023-09-19T02:35:55;1.53;;;1.37;;
4313;SDS011;2170;48.794;9.182;2023-09-19T02:38:23;1.67;;;0.87;;
4313;SDS011;2170;48.794;9.182;2023-09-19T02:40:51;1.00;;;0.97;;
4313;SDS011;2170;48.794;9.182;2023-09-19T02:43:18;1.10;;;1.10;;
4313;SDS011;2170;48.794;9.182;2023-09-19T02:45:45;3.13;;;1.30;;
4313;SDS011;2170;48.794;9.182;2023-09-19T02:48:14;2.80;;;1.40;;
4313;SDS011;2170;48.794;9.182;2023-09-19T02:50:41;1.60;;;1.40;;
4313;SDS011;2170;48.794;9.182;2023-09-19T02:53:10;1.40;;;1.00;;
4313;SDS011;2170;48.794;9.182;2023-09-19T02:55:37;1.27;;;1.17;;
4313;SDS011;2170;48.794;9.182;2023-09-19T02:58:05;2.53;;;0.90;;
4313;SDS011;2170;48.794;9.182;2023-09-19T03:00:34;1.00;;;0.90;;
4313;SDS011;2170;48.794;9.182;2023-09-19T03:03:01;1.00;;;0.97;;
4313;SDS011;2170;48.794;9.182;2023-09-19T03:05:33;1.00;;;1.00;;
4313;SDS011;2170;48.794;9.182;2023-09-19T03:08:01;1.70;;;0.93;;
4313;SDS011;2170;48.794;9.182;2023-09-19T03:10:30;1.27;;;1.17;;
4313;SDS011;2170;48.794;9.182;2023-09-19T03:12:58;2.00;;;1.23;;
4313;SDS011;2170;48.794;9.182;2023-09-19T03:15:25;1.80;;;0.80;;
4313;SDS011;2170;48.794;9.182;2023-09-19T03:17:51;1.40;;;1.30;;
4313;SDS011;2170;48.794;9.182;2023-09-19T03:20:19;2.20;;;0.90;;
4313;SDS011;2170;48.794;9.182;2023-09-19T03:22:46;1.70;;;1.10;;
4313;SDS011;2170;48.794;9.182;2023-09-19T03:25:13;1.30;;;1.20;;
4313;SDS011;2170;48.794;9.182;2023-09-19T03:27:41;1.13;;;1.13;;
4313;SDS011;2170;48.794;9.182;2023-09-19T03:30:08;1.13;;;1.10;;
4313;SDS011;2170;48.794;9.182;2023-09-19T03:32:42;1.53;;;1.00;;
4313;SDS011;2170;48.794;9.182;2023-09-19T03:35:12;3.57;;;1.30;;
4313;SDS011;2170;48.794;9.182;2023-09-19T03:37:39;2.43;;;1.63;;
4313;SDS011;2170;48.794;9.182;2023-09-19T03:40:06;1.40;;;1.30;;
4313;SDS011;2170;48.794;9.182;2023-09-19T03:42:37;1.50;;;1.30;;
4313;SDS011;2170;48.794;9.182;2023-09-19T03:45:06;0.90;;;0.90;;
4313;SDS011;2170;48.794;9.182;2023-09-19T03:47:37;1.23;;;1.13;;
4313;SDS011;2170;48.794;9.182;2023-09-19T03:50:04;1.30;;;1.20;;
4313;SDS011;2170;48.794;9.182;2023-09-19T03:52:32;1.40;;;1.30;;
4313;SDS011;2170;48.794;9.182;2023-09-19T03:54:58;1.17;;;1.17;;
4313;SDS011;2170;48.794;9.182;2023-09-19T03:57:26;1.50;;;1.23;;
4313;SDS011;2170;48.794;9.182;2023-09-19T03:59:53;1.90;;;1.80;;
4313;SDS011;2170;48.794;9.182;2023-09-19T04:02:22;1.40;;;1.30;;
4313;SDS011;2170;48.794;9.182;2023-09-19T04:04:49;2.70;;;1.50;;
4313;SDS011;2170;48.794;9.182;2023-09-19T04:07:17;1.33;;;1.10;;
4313;SDS011;2170;48.794;9.182;2023-09-19T04:09:44;2.93;;;1.60;;
4313;SDS011;2170;48.794;9.182;2023-09-19T04:12:11;1.43;;;1.23;;
4313;SDS011;2170;48.794;9.182;2023-09-19T04:14:40;1.70;;;1.20;;
4313;SDS011;2170;48.794;9.182;2023-09-19T04:17:07;1.10;;;1.10;;
4313;SDS011;2170;48.794;9.182;2023-09-19T04:19:36;1.87;;;1.40;;
4313;SDS011;2170;48.794;9.182;2023-09-19T04:22:03;1.70;;;1.50;;
4313;SDS011;2170;48.794;9.182;2023-09-19T04:24:30;2.90;;;1.30;;
4313;SDS011;2170;48.794;9.182;2023-09-19T04:26:57;2.60;;;1.50;;
4313;SDS011;2170;48.794;9.182;2023-09-19T04:29:24;2.10;;;1.30;;
4313;SDS011;2170;48.794;9.182;2023-09-19T04:31:54;3.97;;;1.37;;
4313;SDS011;2170;48.794;9.182;2023-09-19T04:34:22;3.00;;;1.30;;
4313;SDS011;2170;48.794;9.182;2023-09-19T04:36:50;2.20;;;1.50;;
4313;SDS011;2170;48.794;9.182;2023-09-19T04:39:18;1.40;;;1.30;;
4313;SDS011;2170;48.794;9.182;2023-09-19T04:41:46;1.60;;;1.50;;
4313;SDS011;2170;48.794;9.182;2023-09-19T04:44:12;1.30;;;1.30;;
4313;SDS011;2170;48.794;9.182;2023-09-19T04:46:39;5.20;;;1.40;;
4313;SDS011;2170;48.794;9.182;2023-09-19T04:49:06;1.87;;;1.70;;
4313;SDS011;2170;48.794;9.182;2023-09-19T04:51:32;1.43;;;1.33;;
4313;SDS011;2170;48.794;9.182;2023-09-19T04:54:02;4.87;;;1.50;;
4313;SDS011;2170;48.794;9.182;2023-09-19T04:56:29;1.40;;;1.30;;
4313;SDS011;2170;48.794;9.182;2023-09-19T04:58:57;1.70;;;1.20;;
4313;SDS011;2170;48.794;9.182;2023-09-19T05:01:23;3.00;;;1.60;;
4313;SDS011;2170;48.794;9.182;2023-09-19T05:03:51;3.37;;;1.60;;
4313;SDS011;2170;48.794;9.182;2023-09-19T05:06:18;3.30;;;3.00;;
4313;SDS011;2170;48.794;9.182;2023-09-19T05:08:45;2.80;;;2.57;;
4313;SDS011;2170;48.794;9.182;2023-09-19T05:11:13;3.47;;;2.90;;
4313;SDS011;2170;48.794;9.182;2023-09-19T05:13:40;2.57;;;2.07;;
4313;SDS011;2170;48.794;9.182;2023-09-19T05:16:08;1.73;;;1.40;;
4313;SDS011;2170;48.794;9.182;2023-09-19T05:18:35;1.93;;;1.83;;
4313;SDS011;2170;48.794;9.182;2023-09-19T05:21:02;1.70;;;1.60;;
4313;SDS011;2170;48.794;9.182;2023-09-19T05:23:29;1.60;;;1.50;;
4313;SDS011;2170;48.794;9.182;2023-09-19T05:25:56;1.60;;;1.50;;
4313;SDS011;2170;48.794;9.182;2023-09-19T05:28:26;1.83;;;1.67;;
4313;SDS011;2170;48.794;9.182;2023-09-19T05:30:52;1.87;;;1.63;;
4313;SDS011;2170;48.794;9.182;2023-09-19T05:33:19;2.70;;;1.87;;
4313;SDS011;2170;48.794;9.182;2023-09-19T05:35:47;2.10;;;2.00;;
4313;SDS011;2170;48.794;9.182;2023-09-19T05:38:14;2.20;;;1.80;;
4313;SDS011;2170;48.794;9.182;2023-09-19T05:40:44;5.77;;;2.47;;
4313;SDS011;2170;48.794;9.182;2023-09-19T05:43:11;2.20;;;1.80;;
4313;SDS011;2170;48.794;9.182;2023-09-19T05:45:40;1.53;;;1.43;;
4313;SDS011;2170;48.794;9.182;2023-09-19T05:48:07;2.47;;;1.50;;
4313;SDS011;2170;48.794;9.182;2023-09-19T05:50:35;1.87;;;1.77;;
4313;SDS011;2170;48.794;9.182;2023-09-19T05:53:02;1.70;;;1.60;;
4313;SDS011;2170;48.794;9.182;2023-09-19T05:55:29;2.17;;;1.97;;
4313;SDS011;2170;48.794;9.182;2023-09-19T05:57:56;2.00;;;1.70;;
4313;SDS011;2170;48.794;9.182;2023-09-19T06:00:23;3.57;;;2.00;;
4313;SDS011;2170;48.794;9.182;2023-09-19T06:02:53;3.37;;;2.20;;
4313;SDS011;2170;48.794;9.182;2023-09-19T06:05:21;2.53;;;2.33;;
4313;SDS011;2170;48.794;9.182;2023-09-19T06:07:49;2.03;;;1.93;;
4313;SDS011;2170;48.794;9.182;2023-09-19T06:10:17;4.33;;;2.00;;
4313;SDS011;2170;48.794;9.182;2023-09-19T06:12:45;3.17;;;2.50;;
4313;SDS011;2170;48.794;9.182;2023-09-19T06:15:13;3.00;;;2.53;;
4313;SDS011;2170;48.794;9.182;2023-09-19T06:17:42;2.60;;;2.40;;
4313;SDS011;2170;48.794;9.182;2023-09-19T06:20:10;2.50;;;2.30;;
4313;SDS011;2170;48.794;9.182;2023-09-19T06:22:40;2.40;;;2.20;;
4313;SDS011;2170;48.794;9.182;2023-09-19T06:25:08;2.23;;;2.03;;
4313;SDS011;2170;48.794;9.182;2023-09-19T06:27:36;2.70;;;2.20;;
4313;SDS011;2170;48.794;9.182;2023-09-19T06:30:04;3.67;;;2.00;;
4313;SDS011;2170;48.794;9.182;2023-09-19T06:32:32;2.27;;;2.00;;
4313;SDS011;2170;48.794;9.182;2023-09-19T06:34:59;3.83;;;2.40;;
4313;SDS011;2170;48.794;9.182;2023-09-19T06:37:28;2.40;;;2.20;;
4313;SDS011;2170;48.794;9.182;2023-09-19T06:39:55;2.30;;;2.10;;
4313;SDS011;2170;48.794;9.182;2023-09-19T06:42:22;2.33;;;2.13;;
4313;SDS011;2170;48.794;9.182;2023-09-19T06:44:49;3.73;;;2.30;;
4313;SDS011;2170;48.794;9.182;2023-09-19T06:47:16;2.10;;;1.97;;
4313;SDS011;2170;48.794;9.182;2023-09-19T06:49:43;3.13;;;2.50;;
4313;SDS011;2170;48.794;9.182;2023-09-19T06:52:10;3.20;;;2.20;;
4313;SDS011;2170;48.794;9.182;2023-09-19T06:54:38;2.50;;;2.03;;
4313;SDS011;2170;48.794;9.182;2023-09-19T06:57:05;4.17;;;2.10;;
4313;SDS011;2170;48.794;9.182;2023-09-19T06:59:34;4.43;;;2.40;;
4313;SDS011;2170;48.794;9.182;2023-09-19T07:02:02;3.13;;;2.10;;
4313;SDS011;2170;48.794;9.182;2023-09-19T07:04:31;2.00;;;1.80;;
4313;SDS011;2170;48.794;9.182;2023-09-19T07:06:57;1.80;;;1.67;;
4313;SDS011;2170;48.794;9.182;2023-09-19T07:09:24;3.40;;;1.93;;
4313;SDS011;2170;48.794;9.182;2023-09-19T07:11:53;2.57;;;2.37;;
4313;SDS011;2170;48.794;9.182;2023-09-19T07:14:21;3.57;;;1.90;;
4313;SDS011;2170;48.794;9.182;2023-09-19T07:16:47;2.90;;;2.30;;
4313;SDS011;2170;48.794;9.182;2023-09-19T07:19:15;3.27;;;2.20;;
4313;SDS011;2170;48.794;9.182;2023-09-19T07:21:42;2.03;;;1.93;;
4313;SDS011;2170;48.794;9.182;2023-09-19T07:24:09;4.73;;;2.73;;
4313;SDS011;2170;48.794;9.182;2023-09-19T07:26:36;2.90;;;2.47;;
4313;SDS011;2170;48.794;9.182;2023-09-19T07:29:04;2.33;;;2.20;;
4313;SDS011;2170;48.794;9.182;2023-09-19T07:31:31;2.57;;;1.77;;
4313;SDS011;2170;48.794;9.182;2023-09-19T07:33:58;2.70;;;1.90;;
4313;SDS011;2170;48.794;9.182;2023-09-19T07:36:25;4.37;;;1.90;;
4313;SDS011;2170;48.794;9.182;2023-09-19T07:38:54;3.33;;;2.40;;
4313;SDS011;2170;48.794;9.182;2023-09-19T07:41:23;3.00;;;2.10;;
4313;SDS011;2170;48.794;9.182;2023-09-19T07:43:50;3.60;;;2.30;;
4313;SDS011;2170;48.794;9.182;2023-09-19T07:46:18;2.30;;;1.97;;
4313;SDS011;2170;48.794;9.182;2023-09-19T07:48:45;1.90;;;1.80;;
4313;SDS011;2170;48.794;9.182;2023-09-19T07:51:14;3.77;;;1.93;;
4313;SDS011;2170;48.794;9.182;2023-09-19T07:53:41;2.37;;;2.20;;
4313;SDS011;2170;48.794;9.182;2023-09-19T07:56:09;1.80;;;1.70;;
4313;SDS011;2170;48.794;9.182;2023-09-19T07:58:38;2.20;;;1.93;;
4313;SDS011;2170;48.794;9.182;2023-09-19T08:01:06;4.23;;;2.50;;
4313;SDS011;2170;48.794;9.182;2023-09-19T08:03:36;3.70;;;1.80;;
4313;SDS011;2170;48.794;9.182;2023-09-19T08:06:05;1.63;;;1.53;;
4313;SDS011;2170;48.794;9.182;2023-09-19T08:08:33;2.20;;;2.00;;
4313;SDS011;2170;48.794;9.182;2023-09-19T08:11:02;2.13;;;1.93;;
4313;SDS011;2170;48.794;9.182;2023-09-19T08:13:35;2.30;;;2.07;;
4313;SDS011;2170;48.794;9.182;2023-09-19T08:16:02;2.10;;;2.00;;
4313;SDS011;2170;48.794;9.182;2023-09-19T08:18:29;2.00;;;1.77;;
4313;SDS011;2170;48.794;9.182;2023-09-19T08:20:57;2.70;;;2.27;;
4313;SDS011;2170;48.794;9.182;2023-09-19T08:23:25;5.10;;;2.10;;
4313;SDS011;2170;48.794;9.182;2023-09-19T08:25:55;1.70;;;1.60;;
4313;SDS011;2170;48.794;9.182;2023-09-19T08:28:23;2.20;;;1.90;;
4313;SDS011;2170;48.794;9.182;2023-09-19T08:30:49;2.47;;;1.80;;
4313;SDS011;2170;48.794;9.182;2023-09-19T08:33:17;3.70;;;2.03;;
4313;SDS011;2170;48.794;9.182;2023-09-19T08:35:44;2.03;;;1.50;;
4313;SDS011;2170;48.794;9.182;2023-09-19T08:38:12;2.80;;;1.93;;
4313;SDS011;2170;48.794;9.182;2023-09-19T08:40:40;1.50;;;1.43;;
4313;SDS011;2170;48.794;9.182;2023-09-19T08:43:09;3.90;;;1.57;;
4313;SDS011;2170;48.794;9.182;2023-09-19T08:45:36;1.80;;;1.43;;
4313;SDS011;2170;48.794;9.182;2023-09-19T08:48:10;3.57;;;1.77;;
4313;SDS011;2170;48.794;9.182;2023-09-19T08:50:47;1.90;;;1.80;;
4313;SDS011;2170;48.794;9.182;2023-09-19T08:53:19;3.63;;;2.10;;
4313;SDS011;2170;48.794;9.182;2023-09-19T08:55:52;1.60;;;1.30;;
4313;SDS011;2170;48.794;9.182;2023-09-19T08:58:21;2.30;;;1.80;;
4313;SDS011;2170;48.794;9.182;2023-09-19T09:00:53;1.60;;;1.50;;
4313;SDS011;2170;48.794;9.182;2023-09-19T09:03:21;1.87;;;1.20;;
4313;SDS011;2170;48.794;9.182;2023-09-19T09:05:49;1.73;;;1.23;;
4313;SDS011;2170;48.794;9.182;2023-09-19T09:08:19;2.90;;;1.47;;
4313;SDS011;2170;48.794;9.182;2023-09-19T09:10:47;4.07;;;1.60;;
4313;SDS011;2170;48.794;9.182;2023-09-19T09:13:15;4.00;;;1.73;;
4313;SDS011;2170;48.794;9.182;2023-09-19T09:15:43;5.70;;;1.43;;
4313;SDS011;2170;48.794;9.182;2023-09-19T09:18:10;2.17;;;1.17;;
4313;SDS011;2170;48.794;9.182;2023-09-19T09:20:38;1.83;;;1.47;;
4313;SDS011;2170;48.794;9.182;2023-09-19T09:23:05;1.50;;;1.50;;
4313;SDS011;2170;48.794;9.182;2023-09-19T09:25:49;1.27;;;1.27;;
4313;SDS011;2170;48.794;9.182;2023-09-19T09:28:20;1.83;;;1.73;;
4313;SDS011;2170;48.794;9.182;2023-09-19T09:30:48;1.83;;;1.57;;
4313;SDS011;2170;48.794;9.182;2023-09-19T09:33:15;1.77;;;1.67;;
4313;SDS011;2170;48.794;9.182;2023-09-19T09:35:49;1.97;;;1.57;;
4313;SDS011;2170;48.794;9.182;2023-09-19T09:38:18;2.50;;;1.43;;
4313;SDS011;2170;48.794;9.182;2023-09-19T09:40:46;2.30;;;1.40;;
4313;SDS011;2170;48.794;9.182;2023-09-19T09:43:26;3.43;;;1.40;;
4313;SDS011;2170;48.794;9.182;2023-09-19T09:46:10;1.50;;;1.20;;
4313;SDS011;2170;48.794;9.182;2023-09-19T09:48:56;2.53;;;1.50;;
4313;SDS011;2170;48.794;9.182;2023-09-19T09:51:50;2.10;;;1.40;;
4313;SDS011;2170;48.794;9.182;2023-09-19T09:54:24;1.80;;;1.70;;
4313;SDS011;2170;48.794;9.182;2023-09-19T09:56:59;2.70;;;1.37;;
4313;SDS011;2170;48.794;9.182;2023-09-19T09:59:48;1.50;;;1.40;;
4313;SDS011;2170;48.794;9.182;2023-09-19T10:02:16;1.60;;;1.33;;
4313;SDS011;2170;48.794;9.182;2023-09-19T10:04:50;2.17;;;1.97;;
4313;SDS011;2170;48.794;9.182;2023-09-19T10:07:26;1.90;;;1.63;;
4313;SDS011;2170;48.794;9.182;2023-09-19T10:09:57;2.23;;;1.40;;
4313;SDS011;2170;48.794;9.182;2023-09-19T10:12:29;1.60;;;1.50;;
4313;SDS011;2170;48.794;9.182;2023-09-19T10:14:59;1.63;;;1.30;;
4313;SDS011;2170;48.794;9.182;2023-09-19T10:17:28;2.70;;;1.20;;
4313;SDS011;2170;48.794;9.182;2023-09-19T10:19:56;2.80;;;1.70;;
4313;SDS011;2170;48.794;9.182;2023-09-19T10:22:27;1.43;;;1.10;;
4313;SDS011;2170;48.794;9.182;2023-09-19T10:24:57;4.40;;;1.30;;
4313;SDS011;2170;48.794;9.182;2023-09-19T10:27:25;1.63;;;1.53;;
4313;SDS011;2170;48.794;9.182;2023-09-19T10:29:54;6.23;;;1.57;;
4313;SDS011;2170;48.794;9.182;2023-09-19T10:32:24;1.80;;;1.70;;
4313;SDS011;2170;48.794;9.182;2023-09-19T10:34:54;3.57;;;1.73;;
4313;SDS011;2170;48.794;9.182;2023-09-19T10:37:23;2.00;;;1.30;;
4313;SDS011;2170;48.794;9.182;2023-09-19T10:39:54;2.43;;;1.30;;
4313;SDS011;2170;48.794;9.182;2023-09-19T10:42:22;1.77;;;1.40;;
4313;SDS011;2170;48.794;9.182;2023-09-19T10:44:54;1.53;;;1.23;;
4313;SDS011;2170;48.794;9.182;2023-09-19T10:47:25;2.63;;;1.93;;
4313;SDS011;2170;48.794;9.182;2023-09-19T10:49:51;1.90;;;1.50;;
4313;SDS011;2170;48.794;9.182;2023-09-19T10:52:19;2.33;;;1.50;;
4313;SDS011;2170;48.794;9.182;2023-09-19T10:54:51;1.73;;;1.40;;
4313;SDS011;2170;48.794;9.182;2023-09-19T10:57:23;1.40;;;1.20;;
4313;SDS011;2170;48.794;9.182;2023-09-19T11:00:02;1.40;;;1.30;;
4313;SDS011;2170;48.794;9.182;2023-09-19T11:05:59;2.57;;;1.43;;
4313;SDS011;2170;48.794;9.182;2023-09-19T11:08:30;2.20;;;1.83;;
4313;SDS011;2170;48.794;9.182;2023-09-19T11:10:58;2.13;;;1.93;;
4313;SDS011;2170;48.794;9.182;2023-09-19T11:13:30;2.80;;;2.20;;
4313;SDS011;2170;48.794;9.182;2023-09-19T11:16:03;1.97;;;1.30;;
4313;SDS011;2170;48.794;9.182;2023-09-19T11:27:16;1.47;;;1.33;;
4313;SDS011;2170;48.794;9.182;2023-09-19T11:29:45;1.50;;;1.40;;
4313;SDS011;2170;48.794;9.182;2023-09-19T11:32:14;1.67;;;1.30;;
4313;SDS011;2170;48.794;9.182;2023-09-19T11:34:43;1.10;;;1.10;;
4313;SDS011;2170;48.794;9.182;2023-09-19T11:40:40;1.60;;;1.50;;
4313;SDS011;2170;48.794;9.182;2023-09-19T11:43:29;1.53;;;1.27;;
4313;SDS011;2170;48.794;9.182;2023-09-19T11:46:06;1.80;;;1.20;;
4313;SDS011;2170;48.794;9.182;2023-09-19T11:48:43;1.33;;;1.23;;
4313;SDS011;2170;48.794;9.182;2023-09-19T11:51:14;1.53;;;1.27;;
4313;SDS011;2170;48.794;9.182;2023-09-19T11:53:47;1.20;;;1.10;;
4313;SDS011;2170;48.794;9.182;2023-09-19T11:56:15;1.23;;;1.13;;
4313;SDS011;2170;48.794;9.182;2023-09-19T11:58:43;1.30;;;1.20;;
4313;SDS011;2170;48.794;9.182;2023-09-19T12:01:21;1.90;;;1.17;;
4313;SDS011;2170;48.794;9.182;2023-09-19T12:03:52;0.97;;;0.87;;
4313;SDS011;2170;48.794;9.182;2023-09-19T12:06:22;1.67;;;1.00;;
4313;SDS011;2170;48.794;9.182;2023-09-19T12:08:49;1.23;;;1.13;;
4313;SDS011;2170;48.794;9.182;2023-09-19T12:11:19;0.90;;;0.90;;
4313;SDS011;2170;48.794;9.182;2023-09-19T12:13:48;1.57;;;1.07;;
4313;SDS011;2170;48.794;9.182;2023-09-19T12:16:18;1.77;;;1.30;;
4313;SDS011;2170;48.794;9.182;2023-09-19T12:18:47;1.33;;;1.10;;
4313;SDS011;2170;48.794;9.182;2023-09-19T12:21:22;1.47;;;1.03;;
4313;SDS011;2170;48.794;9.182;2023-09-19T12:23:59;1.70;;;1.10;;
4313;SDS011;2170;48.794;9.182;2023-09-19T12:26:40;1.10;;;1.10;;
4313;SDS011;2170;48.794;9.182;2023-09-19T12:29:15;1.63;;;1.20;;
4313;SDS011;2170;48.794;9.182;2023-09-19T12:31:51;1.33;;;1.07;;
4313;SDS011;2170;48.794;9.182;2023-09-19T12:34:22;1.80;;;1.60;;
4313;SDS011;2170;48.794;9.182;2023-09-19T12:37:03;1.43;;;1.30;;
4313;SDS011;2170;48.794;9.182;2023-09-19T12:39:36;1.50;;;1.00;;
4313;SDS011;2170;48.794;9.182;2023-09-19T12:42:03;1.23;;;1.13;;
4313;SDS011;2170;48.794;9.182;2023-09-19T12:44:34;1.77;;;1.30;;
4313;SDS011;2170;48.794;9.182;2023-09-19T12:47:09;1.30;;;1.20;;
4313;SDS011;2170;48.794;9.182;2023-09-19T12:52:42;0.97;;;0.97;;
4313;SDS011;2170;48.794;9.182;2023-09-19T12:55:22;2.80;;;1.13;;
4313;SDS011;2170;48.794;9.182;2023-09-19T12:57:59;3.23;;;1.13;;
4313;SDS011;2170;48.794;9.182;2023-09-19T13:00:34;1.73;;;0.90;;
4313;SDS011;2170;48.794;9.182;2023-09-19T13:03:16;1.20;;;1.07;;
4313;SDS011;2170;48.794;9.182;2023-09-19T13:05:50;1.60;;;1.50;;
4313;SDS011;2170;48.794;9.182;2023-09-19T13:08:20;1.47;;;1.37;;
4313;SDS011;2170;48.794;9.182;2023-09-19T13:11:05;1.83;;;1.60;;
4313;SDS011;2170;48.794;9.182;2023-09-19T13:13:37;1.30;;;1.20;;
4313;SDS011;2170;48.794;9.182;2023-09-19T13:16:06;1.30;;;1.20;;
4313;SDS011;2170;48.794;9.182;2023-09-19T13:18:45;1.30;;;1.20;;
4313;SDS011;2170;48.794;9.182;2023-09-19T13:21:15;2.53;;;1.37;;
4313;SDS011;2170;48.794;9.182;2023-09-19T13:23:49;1.60;;;1.50;;
4313;SDS011;2170;48.794;9.182;2023-09-19T13:26:16;1.40;;;1.20;;
4313;SDS011;2170;48.794;9.182;2023-09-19T13:28:44;2.20;;;1.10;;
4313;SDS011;2170;48.794;9.182;2023-09-19T13:31:13;1.17;;;1.10;;
4313;SDS011;2170;48.794;9.182;2023-09-19T13:33:42;1.50;;;1.40;;
4313;SDS011;2170;48.794;9.182;2023-09-19T13:36:11;1.43;;;1.33;;
4313;SDS011;2170;48.794;9.182;2023-09-19T13:38:39;1.73;;;1.50;;
4313;SDS011;2170;48.794;9.182;2023-09-19T13:41:07;1.90;;;1.40;;
4313;SDS011;2170;48.794;9.182;2023-09-19T13:43:35;1.70;;;1.60;;
4313;SDS011;2170;48.794;9.182;2023-09-19T13:46:02;1.33;;;1.20;;
4313;SDS011;2170;48.794;9.182;2023-09-19T13:48:28;1.50;;;1.20;;
4313;SDS011;2170;48.794;9.182;2023-09-19T13:50:57;1.57;;;1.47;;
4313;SDS011;2170;48.794;9.182;2023-09-19T13:53:23;1.43;;;1.33;;
4313;SDS011;2170;48.794;9.182;2023-09-19T13:55:51;1.83;;;1.57;;
4313;SDS011;2170;48.794;9.182;2023-09-19T13:58:17;1.67;;;1.57;;
4313;SDS011;2170;48.794;9.182;2023-09-19T14:00:44;1.43;;;1.33;;
4313;SDS011;2170;48.794;9.182;2023-09-19T14:03:11;2.23;;;1.57;;
4313;SDS011;2170;48.794;9.182;2023-09-19T14:05:37;1.77;;;0.90;;
4313;SDS011;2170;48.794;9.182;2023-09-19T14:08:06;1.77;;;1.30;;
4313;SDS011;2170;48.794;9.182;2023-09-19T14:10:33;1.40;;;1.30;;
4313;SDS011;2170;48.794;9.182;2023-09-19T14:13:01;2.97;;;1.57;;
4313;SDS011;2170;48.794;9.182;2023-09-19T14:15:28;1.10;;;1.10;;
4313;SDS011;2170;48.794;9.182;2023-09-19T14:17:55;1.60;;;1.40;;
4313;SDS011;2170;48.794;9.182;2023-09-19T14:20:24;3.57;;;2.00;;
4313;SDS011;2170;48.794;9.182;2023-09-19T14:22:52;1.43;;;1.30;;
4313;SDS011;2170;48.794;9.182;2023-09-19T14:25:20;2.23;;;1.50;;
4313;SDS011;2170;48.794;9.182;2023-09-19T14:27:47;2.00;;;1.20;;
4313;SDS011;2170;48.794;9.182;2023-09-19T14:30:14;1.93;;;1.57;;
4313;SDS011;2170;48.794;9.182;2023-09-19T14:32:41;5.73;;;1.80;;
4313;SDS011;2170;48.794;9.182;2023-09-19T14:35:08;3.17;;;1.80;;
4313;SDS011;2170;48.794;9.182;2023-09-19T14:37:35;2.10;;;1.40;;
4313;SDS011;2170;48.794;9.182;2023-09-19T14:40:03;1.90;;;1.47;;
4313;SDS011;2170;48.794;9.182;2023-09-19T14:42:35;1.80;;;1.40;;
4313;SDS011;2170;48.794;9.182;2023-09-19T14:45:03;1.60;;;1.50;;
4313;SDS011;2170;48.794;9.182;2023-09-19T14:47:33;1.67;;;1.57;;
4313;SDS011;2170;48.794;9.182;2023-09-19T14:50:01;2.13;;;1.70;;
4313;SDS011;2170;48.794;9.182;2023-09-19T14:52:31;2.23;;;1.53;;
4313;SDS011;2170;48.794;9.182;2023-09-19T14:55:01;3.00;;;1.50;;
4313;SDS011;2170;48.794;9.182;2023-09-19T14:57:31;1.63;;;1.53;;
4313;SDS011;2170;48.794;9.182;2023-09-19T15:00:04;4.33;;;1.10;;
4313;SDS011;2170;48.794;9.182;2023-09-19T15:02:37;1.20;;;1.10;;
4313;SDS011;2170;48.794;9.182;2023-09-19T15:05:05;1.53;;;1.43;;
4313;SDS011;2170;48.794;9.182;2023-09-19T15:07:33;1.70;;;1.43;;
4313;SDS011;2170;48.794;9.182;2023-09-19T15:10:01;1.40;;;1.23;;
4313;SDS011;2170;48.794;9.182;2023-09-19T15:12:32;1.93;;;1.10;;
4313;SDS011;2170;48.794;9.182;2023-09-19T15:15:01;2.00;;;1.60;;
4313;SDS011;2170;48.794;9.182;2023-09-19T15:17:30;1.60;;;1.50;;
4313;SDS011;2170;48.794;9.182;2023-09-19T15:19:56;1.77;;;1.50;;
4313;SDS011;2170;48.794;9.182;2023-09-19T15:22:23;1.43;;;1.33;;
4313;SDS011;2170;48.794;9.182;2023-09-19T15:24:50;1.17;;;1.17;;
4313;SDS011;2170;48.794;9.182;2023-09-19T15:27:17;1.60;;;1.20;;
4313;SDS011;2170;48.794;9.182;2023-09-19T15:29:45;2.07;;;1.37;;
4313;SDS011;2170;48.794;9.182;2023-09-19T15:32:13;2.40;;;1.20;;
4313;SDS011;2170;48.794;9.182;2023-09-19T15:34:39;3.30;;;1.50;;
4313;SDS011;2170;48.794;9.182;2023-09-19T15:37:06;1.10;;;1.10;;
4313;SDS011;2170;48.794;9.182;2023-09-19T15:39:33;1.30;;;1.20;;
4313;SDS011;2170;48.794;9.182;2023-09-19T15:41:59;0.90;;;0.80;;
4313;SDS011;2170;48.794;9.182;2023-09-19T15:44:26;0.90;;;0.90;;
4313;SDS011;2170;48.794;9.182;2023-09-19T15:46:53;1.47;;;1.37;;
4313;SDS011;2170;48.794;9.182;2023-09-19T15:49:21;2.40;;;1.20;;